sensor_id;sensor_type;location;lat;lon;timestamp;P1;durP1;ratioP1;P2;durP2;ratioP2
14187;SDS011;7175;51.978;5.330;2022-12-13T00:01:45;86.60;;;81.90;;
14187;SDS011;7175;51.978;5.330;2022-12-13T00:04:14;87.40;;;82.60;;
14187;SDS011;7175;51.978;5.330;2022-12-13T00:06:43;85.63;;;81.03;;
14187;SDS011;7175;51.978;5.330;2022-12-13T00:09:11;83.43;;;78.93;;
14187;SDS011;7175;51.978;5.330;2022-12-13T00:11:41;82.40;;;77.90;;
14187;SDS011;7175;51.978;5.330;2022-12-13T00:14:09;82.13;;;77.63;;
14187;SDS011;7175;51.978;5.330;2022-12-13T00:16:39;81.70;;;77.20;;
14187;SDS011;7175;51.978;5.330;2022-12-13T00:19:12;85.60;;;80.47;;
14187;SDS011;7175;51.978;5.330;2022-12-13T00:21:41;83.40;;;78.83;;
14187;SDS011;7175;51.978;5.330;2022-12-13T00:24:09;81.60;;;77.13;;
14187;SDS011;7175;51.978;5.330;2022-12-13T00:26:38;81.67;;;77.23;;
14187;SDS011;7175;51.978;5.330;2022-12-13T00:29:06;80.77;;;76.37;;
14187;SDS011;7175;51.978;5.330;2022-12-13T00:31:35;80.20;;;75.80;;
14187;SDS011;7175;51.978;5.330;2022-12-13T00:34:24;82.53;;;77.93;;
14187;SDS011;7175;51.978;5.330;2022-12-13T00:36:54;79.23;;;74.90;;
14187;SDS011;7175;51.978;5.330;2022-12-13T00:39:25;79.17;;;74.87;;
14187;SDS011;7175;51.978;5.330;2022-12-13T00:41:55;79.00;;;74.70;;
14187;SDS011;7175;51.978;5.330;2022-12-13T00:44:23;78.63;;;74.33;;
14187;SDS011;7175;51.978;5.330;2022-12-13T00:46:51;78.93;;;74.63;;
14187;SDS011;7175;51.978;5.330;2022-12-13T00:49:20;80.00;;;75.70;;
14187;SDS011;7175;51.978;5.330;2022-12-13T00:51:49;79.20;;;74.90;;
14187;SDS011;7175;51.978;5.330;2022-12-13T00:54:17;77.20;;;73.00;;
14187;SDS011;7175;51.978;5.330;2022-12-13T00:56:46;75.70;;;71.50;;
14187;SDS011;7175;51.978;5.330;2022-12-13T00:59:17;76.70;;;72.50;;
14187;SDS011;7175;51.978;5.330;2022-12-13T01:01:45;74.77;;;70.67;;
14187;SDS011;7175;51.978;5.330;2022-12-13T01:04:13;75.60;;;71.40;;
14187;SDS011;7175;51.978;5.330;2022-12-13T01:06:42;75.93;;;71.73;;
14187;SDS011;7175;51.978;5.330;2022-12-13T01:09:15;77.80;;;73.57;;
14187;SDS011;7175;51.978;5.330;2022-12-13T01:11:45;78.23;;;73.93;;
14187;SDS011;7175;51.978;5.330;2022-12-13T01:14:14;78.83;;;74.53;;
14187;SDS011;7175;51.978;5.330;2022-12-13T01:16:43;78.33;;;74.03;;
14187;SDS011;7175;51.978;5.330;2022-12-13T01:19:12;83.10;;;78.10;;
14187;SDS011;7175;51.978;5.330;2022-12-13T01:21:40;81.07;;;76.67;;
14187;SDS011;7175;51.978;5.330;2022-12-13T01:24:08;86.37;;;81.70;;
14187;SDS011;7175;51.978;5.330;2022-12-13T01:26:38;84.13;;;79.53;;
14187;SDS011;7175;51.978;5.330;2022-12-13T01:29:06;88.53;;;83.73;;
14187;SDS011;7175;51.978;5.330;2022-12-13T01:31:37;86.50;;;81.83;;
14187;SDS011;7175;51.978;5.330;2022-12-13T01:34:07;86.60;;;81.90;;
14187;SDS011;7175;51.978;5.330;2022-12-13T01:36:37;85.17;;;80.57;;
14187;SDS011;7175;51.978;5.330;2022-12-13T01:39:05;87.40;;;82.70;;
14187;SDS011;7175;51.978;5.330;2022-12-13T01:41:42;87.80;;;83.10;;
14187;SDS011;7175;51.978;5.330;2022-12-13T01:47:19;90.23;;;85.40;;
14187;SDS011;7175;51.978;5.330;2022-12-13T01:49:51;91.20;;;86.30;;
14187;SDS011;7175;51.978;5.330;2022-12-13T01:52:25;89.80;;;85.00;;
14187;SDS011;7175;51.978;5.330;2022-12-13T01:54:56;90.60;;;85.80;;
14187;SDS011;7175;51.978;5.330;2022-12-13T01:57:30;91.63;;;86.77;;
14187;SDS011;7175;51.978;5.330;2022-12-13T02:00:02;90.50;;;85.70;;
14187;SDS011;7175;51.978;5.330;2022-12-13T02:02:31;92.83;;;87.93;;
14187;SDS011;7175;51.978;5.330;2022-12-13T02:05:02;88.70;;;83.97;;
14187;SDS011;7175;51.978;5.330;2022-12-13T02:07:32;90.60;;;85.80;;
14187;SDS011;7175;51.978;5.330;2022-12-13T02:10:04;89.47;;;84.67;;
14187;SDS011;7175;51.978;5.330;2022-12-13T02:12:36;88.03;;;83.33;;
14187;SDS011;7175;51.978;5.330;2022-12-13T02:15:07;87.80;;;83.10;;
14187;SDS011;7175;51.978;5.330;2022-12-13T02:17:51;87.37;;;82.67;;
14187;SDS011;7175;51.978;5.330;2022-12-13T02:20:44;85.03;;;80.47;;
14187;SDS011;7175;51.978;5.330;2022-12-13T02:23:47;84.27;;;79.77;;
14187;SDS011;7175;51.978;5.330;2022-12-13T02:26:43;84.50;;;79.90;;
14187;SDS011;7175;51.978;5.330;2022-12-13T02:32:19;81.53;;;77.13;;
14187;SDS011;7175;51.978;5.330;2022-12-13T02:34:55;83.33;;;78.83;;
14187;SDS011;7175;51.978;5.330;2022-12-13T02:37:31;82.20;;;77.73;;
14187;SDS011;7175;51.978;5.330;2022-12-13T02:40:10;82.73;;;78.23;;
14187;SDS011;7175;51.978;5.330;2022-12-13T02:42:44;82.37;;;77.90;;
14187;SDS011;7175;51.978;5.330;2022-12-13T02:45:20;86.00;;;81.40;;
14187;SDS011;7175;51.978;5.330;2022-12-13T02:47:54;83.47;;;78.97;;
14187;SDS011;7175;51.978;5.330;2022-12-13T02:50:24;83.90;;;79.40;;
14187;SDS011;7175;51.978;5.330;2022-12-13T02:52:54;83.53;;;79.03;;
14187;SDS011;7175;51.978;5.330;2022-12-13T02:55:23;87.37;;;82.67;;
14187;SDS011;7175;51.978;5.330;2022-12-13T02:57:54;89.93;;;85.13;;
14187;SDS011;7175;51.978;5.330;2022-12-13T03:00:22;92.10;;;87.10;;
14187;SDS011;7175;51.978;5.330;2022-12-13T03:03:03;96.40;;;91.30;;
14187;SDS011;7175;51.978;5.330;2022-12-13T03:05:41;97.43;;;92.17;;
14187;SDS011;7175;51.978;5.330;2022-12-13T03:08:35;99.73;;;94.33;;
14187;SDS011;7175;51.978;5.330;2022-12-13T03:11:12;100.30;;;94.80;;
14187;SDS011;7175;51.978;5.330;2022-12-13T03:13:45;101.23;;;95.73;;
14187;SDS011;7175;51.978;5.330;2022-12-13T03:16:21;101.07;;;95.57;;
14187;SDS011;7175;51.978;5.330;2022-12-13T03:18:58;100.07;;;94.50;;
14187;SDS011;7175;51.978;5.330;2022-12-13T03:21:28;102.70;;;96.90;;
14187;SDS011;7175;51.978;5.330;2022-12-13T03:23:57;102.07;;;96.27;;
14187;SDS011;7175;51.978;5.330;2022-12-13T03:26:25;101.17;;;95.37;;
14187;SDS011;7175;51.978;5.330;2022-12-13T03:28:53;108.87;;;102.67;;
14187;SDS011;7175;51.978;5.330;2022-12-13T03:31:22;103.00;;;96.97;;
14187;SDS011;7175;51.978;5.330;2022-12-13T03:33:50;101.83;;;95.73;;
14187;SDS011;7175;51.978;5.330;2022-12-13T03:36:19;103.00;;;96.90;;
14187;SDS011;7175;51.978;5.330;2022-12-13T03:38:48;103.77;;;97.57;;
14187;SDS011;7175;51.978;5.330;2022-12-13T03:41:20;99.00;;;93.20;;
14187;SDS011;7175;51.978;5.330;2022-12-13T03:43:56;94.03;;;88.63;;
14187;SDS011;7175;51.978;5.330;2022-12-13T03:46:25;98.63;;;93.03;;
14187;SDS011;7175;51.978;5.330;2022-12-13T03:48:53;101.20;;;95.60;;
14187;SDS011;7175;51.978;5.330;2022-12-13T03:51:23;100.33;;;94.73;;
14187;SDS011;7175;51.978;5.330;2022-12-13T03:53:51;98.50;;;92.90;;
14187;SDS011;7175;51.978;5.330;2022-12-13T03:56:20;99.53;;;93.93;;
14187;SDS011;7175;51.978;5.330;2022-12-13T03:58:48;98.03;;;92.53;;
14187;SDS011;7175;51.978;5.330;2022-12-13T04:01:16;96.97;;;91.47;;
14187;SDS011;7175;51.978;5.330;2022-12-13T04:03:45;96.23;;;90.67;;
14187;SDS011;7175;51.978;5.330;2022-12-13T04:06:14;98.20;;;92.53;;
14187;SDS011;7175;51.978;5.330;2022-12-13T04:08:49;100.40;;;94.80;;
14187;SDS011;7175;51.978;5.330;2022-12-13T04:11:18;95.53;;;90.03;;
14187;SDS011;7175;51.978;5.330;2022-12-13T04:14:08;94.60;;;89.10;;
14187;SDS011;7175;51.978;5.330;2022-12-13T04:16:47;96.20;;;90.60;;
14187;SDS011;7175;51.978;5.330;2022-12-13T04:19:16;92.97;;;87.37;;
14187;SDS011;7175;51.978;5.330;2022-12-13T04:21:49;93.50;;;87.90;;
14187;SDS011;7175;51.978;5.330;2022-12-13T04:24:18;94.30;;;88.70;;
14187;SDS011;7175;51.978;5.330;2022-12-13T04:26:56;95.90;;;90.20;;
14187;SDS011;7175;51.978;5.330;2022-12-13T04:29:26;93.00;;;87.40;;
14187;SDS011;7175;51.978;5.330;2022-12-13T04:32:00;94.80;;;89.10;;
14187;SDS011;7175;51.978;5.330;2022-12-13T04:34:29;94.80;;;89.00;;
14187;SDS011;7175;51.978;5.330;2022-12-13T04:37:03;97.00;;;91.20;;
14187;SDS011;7175;51.978;5.330;2022-12-13T04:39:32;93.67;;;88.00;;
14187;SDS011;7175;51.978;5.330;2022-12-13T04:42:01;96.03;;;89.73;;
14187;SDS011;7175;51.978;5.330;2022-12-13T04:44:30;96.40;;;90.60;;
14187;SDS011;7175;51.978;5.330;2022-12-13T04:47:02;95.70;;;89.90;;
14187;SDS011;7175;51.978;5.330;2022-12-13T04:49:31;93.67;;;88.07;;
14187;SDS011;7175;51.978;5.330;2022-12-13T04:51:59;93.17;;;87.53;;
14187;SDS011;7175;51.978;5.330;2022-12-13T04:54:29;90.07;;;84.47;;
14187;SDS011;7175;51.978;5.330;2022-12-13T04:57:04;93.83;;;88.03;;
14187;SDS011;7175;51.978;5.330;2022-12-13T04:59:33;93.87;;;88.10;;
14187;SDS011;7175;51.978;5.330;2022-12-13T05:02:02;93.70;;;88.00;;
14187;SDS011;7175;51.978;5.330;2022-12-13T05:04:31;88.60;;;83.10;;
14187;SDS011;7175;51.978;5.330;2022-12-13T05:06:59;86.00;;;80.43;;
14187;SDS011;7175;51.978;5.330;2022-12-13T05:09:28;91.00;;;85.10;;
14187;SDS011;7175;51.978;5.330;2022-12-13T05:11:56;89.33;;;83.53;;
14187;SDS011;7175;51.978;5.330;2022-12-13T05:14:28;85.10;;;79.60;;
14187;SDS011;7175;51.978;5.330;2022-12-13T05:16:59;88.63;;;83.03;;
14187;SDS011;7175;51.978;5.330;2022-12-13T05:19:28;83.70;;;78.27;;
14187;SDS011;7175;51.978;5.330;2022-12-13T05:21:57;85.07;;;79.50;;
14187;SDS011;7175;51.978;5.330;2022-12-13T05:24:28;87.70;;;82.00;;
14187;SDS011;7175;51.978;5.330;2022-12-13T05:26:56;85.47;;;79.97;;
14187;SDS011;7175;51.978;5.330;2022-12-13T05:29:25;85.07;;;79.47;;
14187;SDS011;7175;51.978;5.330;2022-12-13T05:31:55;86.43;;;80.83;;
14187;SDS011;7175;51.978;5.330;2022-12-13T05:34:23;86.77;;;81.17;;
14187;SDS011;7175;51.978;5.330;2022-12-13T05:36:51;92.93;;;87.13;;
14187;SDS011;7175;51.978;5.330;2022-12-13T05:39:19;92.43;;;86.63;;
14187;SDS011;7175;51.978;5.330;2022-12-13T05:41:55;92.10;;;86.30;;
14187;SDS011;7175;51.978;5.330;2022-12-13T05:44:28;92.77;;;86.97;;
14187;SDS011;7175;51.978;5.330;2022-12-13T05:46:58;93.60;;;87.80;;
14187;SDS011;7175;51.978;5.330;2022-12-13T05:49:28;89.37;;;83.67;;
14187;SDS011;7175;51.978;5.330;2022-12-13T05:51:56;88.70;;;83.00;;
14187;SDS011;7175;51.978;5.330;2022-12-13T05:54:25;84.40;;;78.90;;
14187;SDS011;7175;51.978;5.330;2022-12-13T05:56:53;86.10;;;80.53;;
14187;SDS011;7175;51.978;5.330;2022-12-13T05:59:21;86.00;;;80.50;;
14187;SDS011;7175;51.978;5.330;2022-12-13T06:01:49;89.10;;;83.07;;
14187;SDS011;7175;51.978;5.330;2022-12-13T06:04:19;89.50;;;83.80;;
14187;SDS011;7175;51.978;5.330;2022-12-13T06:06:49;88.87;;;83.17;;
14187;SDS011;7175;51.978;5.330;2022-12-13T06:09:18;87.87;;;81.97;;
14187;SDS011;7175;51.978;5.330;2022-12-13T06:11:47;85.00;;;79.27;;
14187;SDS011;7175;51.978;5.330;2022-12-13T06:14:15;80.57;;;75.27;;
14187;SDS011;7175;51.978;5.330;2022-12-13T06:16:49;81.67;;;76.30;;
14187;SDS011;7175;51.978;5.330;2022-12-13T06:19:18;86.13;;;80.70;;
14187;SDS011;7175;51.978;5.330;2022-12-13T06:21:47;92.03;;;86.43;;
14187;SDS011;7175;51.978;5.330;2022-12-13T06:24:16;92.43;;;86.77;;
14187;SDS011;7175;51.978;5.330;2022-12-13T06:26:46;90.10;;;84.60;;
14187;SDS011;7175;51.978;5.330;2022-12-13T06:29:15;92.07;;;86.50;;
14187;SDS011;7175;51.978;5.330;2022-12-13T06:31:51;91.70;;;86.10;;
14187;SDS011;7175;51.978;5.330;2022-12-13T06:34:29;85.80;;;80.43;;
14187;SDS011;7175;51.978;5.330;2022-12-13T06:36:59;90.60;;;85.13;;
14187;SDS011;7175;51.978;5.330;2022-12-13T06:39:27;89.17;;;83.67;;
14187;SDS011;7175;51.978;5.330;2022-12-13T06:41:59;89.53;;;84.13;;
14187;SDS011;7175;51.978;5.330;2022-12-13T06:44:28;82.13;;;76.93;;
14187;SDS011;7175;51.978;5.330;2022-12-13T06:46:56;80.73;;;75.63;;
14187;SDS011;7175;51.978;5.330;2022-12-13T06:49:39;82.43;;;77.23;;
14187;SDS011;7175;51.978;5.330;2022-12-13T06:52:10;82.00;;;76.80;;
14187;SDS011;7175;51.978;5.330;2022-12-13T06:54:39;79.90;;;74.87;;
14187;SDS011;7175;51.978;5.330;2022-12-13T06:57:08;80.07;;;74.97;;
14187;SDS011;7175;51.978;5.330;2022-12-13T06:59:37;87.27;;;81.77;;
14187;SDS011;7175;51.978;5.330;2022-12-13T07:02:06;85.77;;;80.47;;
14187;SDS011;7175;51.978;5.330;2022-12-13T07:04:52;85.90;;;80.60;;
14187;SDS011;7175;51.978;5.330;2022-12-13T07:07:21;89.70;;;84.20;;
14187;SDS011;7175;51.978;5.330;2022-12-13T07:09:50;90.93;;;85.33;;
14187;SDS011;7175;51.978;5.330;2022-12-13T07:12:20;94.50;;;88.75;;
14187;SDS011;7175;51.978;5.330;2022-12-13T07:14:48;93.07;;;87.50;;
14187;SDS011;7175;51.978;5.330;2022-12-13T07:17:17;94.07;;;88.47;;
14187;SDS011;7175;51.978;5.330;2022-12-13T07:20:02;91.13;;;85.60;;
14187;SDS011;7175;51.978;5.330;2022-12-13T07:22:34;91.80;;;85.93;;
14187;SDS011;7175;51.978;5.330;2022-12-13T07:25:12;92.57;;;86.97;;
14187;SDS011;7175;51.978;5.330;2022-12-13T07:27:55;92.20;;;86.50;;
14187;SDS011;7175;51.978;5.330;2022-12-13T07:30:27;89.47;;;83.87;;
14187;SDS011;7175;51.978;5.330;2022-12-13T07:32:56;91.37;;;85.43;;
14187;SDS011;7175;51.978;5.330;2022-12-13T07:35:26;90.80;;;85.40;;
14187;SDS011;7175;51.978;5.330;2022-12-13T07:37:54;92.40;;;86.90;;
14187;SDS011;7175;51.978;5.330;2022-12-13T07:40:22;84.07;;;78.87;;
14187;SDS011;7175;51.978;5.330;2022-12-13T07:42:51;84.23;;;79.03;;
14187;SDS011;7175;51.978;5.330;2022-12-13T07:45:20;87.20;;;81.90;;
14187;SDS011;7175;51.978;5.330;2022-12-13T07:47:49;83.57;;;78.47;;
14187;SDS011;7175;51.978;5.330;2022-12-13T07:50:18;83.90;;;78.70;;
14187;SDS011;7175;51.978;5.330;2022-12-13T07:52:52;83.43;;;78.33;;
14187;SDS011;7175;51.978;5.330;2022-12-13T07:55:20;83.67;;;78.47;;
14187;SDS011;7175;51.978;5.330;2022-12-13T07:58:05;83.53;;;78.33;;
14187;SDS011;7175;51.978;5.330;2022-12-13T08:00:35;84.80;;;79.60;;
14187;SDS011;7175;51.978;5.330;2022-12-13T08:03:03;84.60;;;79.40;;
14187;SDS011;7175;51.978;5.330;2022-12-13T08:05:32;86.70;;;81.50;;
14187;SDS011;7175;51.978;5.330;2022-12-13T08:08:06;87.40;;;82.00;;
14187;SDS011;7175;51.978;5.330;2022-12-13T08:10:35;86.43;;;81.23;;
14187;SDS011;7175;51.978;5.330;2022-12-13T08:13:04;87.70;;;82.40;;
14187;SDS011;7175;51.978;5.330;2022-12-13T08:15:32;87.20;;;81.97;;
14187;SDS011;7175;51.978;5.330;2022-12-13T08:18:00;86.77;;;81.50;;
14187;SDS011;7175;51.978;5.330;2022-12-13T08:20:29;86.23;;;80.93;;
14187;SDS011;7175;51.978;5.330;2022-12-13T08:22:58;83.83;;;78.70;;
14187;SDS011;7175;51.978;5.330;2022-12-13T08:25:29;86.60;;;81.40;;
14187;SDS011;7175;51.978;5.330;2022-12-13T08:27:58;83.70;;;78.60;;
14187;SDS011;7175;51.978;5.330;2022-12-13T08:30:29;83.17;;;78.07;;
14187;SDS011;7175;51.978;5.330;2022-12-13T08:32:58;81.33;;;76.23;;
14187;SDS011;7175;51.978;5.330;2022-12-13T08:35:30;81.20;;;76.10;;
14187;SDS011;7175;51.978;5.330;2022-12-13T08:38:00;79.57;;;74.47;;
14187;SDS011;7175;51.978;5.330;2022-12-13T08:40:30;82.87;;;77.60;;
14187;SDS011;7175;51.978;5.330;2022-12-13T08:43:00;86.00;;;80.50;;
14187;SDS011;7175;51.978;5.330;2022-12-13T08:45:29;84.30;;;79.00;;
14187;SDS011;7175;51.978;5.330;2022-12-13T08:47:59;82.33;;;77.10;;
14187;SDS011;7175;51.978;5.330;2022-12-13T08:50:28;83.43;;;78.13;;
14187;SDS011;7175;51.978;5.330;2022-12-13T08:52:57;88.87;;;83.23;;
14187;SDS011;7175;51.978;5.330;2022-12-13T08:55:25;83.37;;;78.07;;
14187;SDS011;7175;51.978;5.330;2022-12-13T08:58:02;86.73;;;81.13;;
14187;SDS011;7175;51.978;5.330;2022-12-13T09:00:32;81.90;;;76.60;;
14187;SDS011;7175;51.978;5.330;2022-12-13T09:03:01;85.60;;;80.10;;
14187;SDS011;7175;51.978;5.330;2022-12-13T09:05:29;83.20;;;77.70;;
14187;SDS011;7175;51.978;5.330;2022-12-13T09:08:00;80.93;;;75.43;;
14187;SDS011;7175;51.978;5.330;2022-12-13T09:10:54;79.67;;;74.20;;
14187;SDS011;7175;51.978;5.330;2022-12-13T09:13:26;78.93;;;73.53;;
14187;SDS011;7175;51.978;5.330;2022-12-13T09:15:57;82.07;;;76.43;;
14187;SDS011;7175;51.978;5.330;2022-12-13T09:18:27;88.90;;;83.00;;
14187;SDS011;7175;51.978;5.330;2022-12-13T09:21:05;80.03;;;74.43;;
14187;SDS011;7175;51.978;5.330;2022-12-13T09:23:37;84.70;;;78.90;;
14187;SDS011;7175;51.978;5.330;2022-12-13T09:26:27;82.77;;;77.07;;
14187;SDS011;7175;51.978;5.330;2022-12-13T09:29:05;83.53;;;77.83;;
14187;SDS011;7175;51.978;5.330;2022-12-13T09:31:37;81.27;;;75.57;;
14187;SDS011;7175;51.978;5.330;2022-12-13T09:34:06;83.73;;;77.93;;
14187;SDS011;7175;51.978;5.330;2022-12-13T09:36:35;85.70;;;79.83;;
14187;SDS011;7175;51.978;5.330;2022-12-13T09:39:03;84.83;;;79.03;;
14187;SDS011;7175;51.978;5.330;2022-12-13T09:41:31;82.13;;;76.23;;
14187;SDS011;7175;51.978;5.330;2022-12-13T09:44:10;79.30;;;73.60;;
14187;SDS011;7175;51.978;5.330;2022-12-13T09:46:58;80.50;;;74.70;;
14187;SDS011;7175;51.978;5.330;2022-12-13T09:49:28;82.17;;;76.17;;
14187;SDS011;7175;51.978;5.330;2022-12-13T09:52:04;87.20;;;81.20;;
14187;SDS011;7175;51.978;5.330;2022-12-13T09:54:37;86.47;;;80.40;;
14187;SDS011;7175;51.978;5.330;2022-12-13T09:57:15;84.77;;;78.87;;
14187;SDS011;7175;51.978;5.330;2022-12-13T10:00:00;80.63;;;74.73;;
14187;SDS011;7175;51.978;5.330;2022-12-13T10:02:30;79.60;;;73.80;;
14187;SDS011;7175;51.978;5.330;2022-12-13T10:05:10;81.23;;;75.43;;
14187;SDS011;7175;51.978;5.330;2022-12-13T10:07:49;81.10;;;75.20;;
14187;SDS011;7175;51.978;5.330;2022-12-13T10:10:21;88.37;;;82.23;;
14187;SDS011;7175;51.978;5.330;2022-12-13T10:12:51;87.60;;;81.50;;
14187;SDS011;7175;51.978;5.330;2022-12-13T10:15:26;91.30;;;84.17;;
14187;SDS011;7175;51.978;5.330;2022-12-13T10:17:56;89.17;;;83.07;;
14187;SDS011;7175;51.978;5.330;2022-12-13T10:20:26;90.17;;;83.97;;
14187;SDS011;7175;51.978;5.330;2022-12-13T10:22:56;91.30;;;85.00;;
14187;SDS011;7175;51.978;5.330;2022-12-13T10:25:46;89.13;;;82.47;;
14187;SDS011;7175;51.978;5.330;2022-12-13T10:28:17;90.37;;;84.17;;
14187;SDS011;7175;51.978;5.330;2022-12-13T10:30:53;95.60;;;89.00;;
14187;SDS011;7175;51.978;5.330;2022-12-13T10:33:24;93.53;;;87.13;;
14187;SDS011;7175;51.978;5.330;2022-12-13T10:36:05;94.63;;;88.13;;
14187;SDS011;7175;51.978;5.330;2022-12-13T10:38:36;96.80;;;90.30;;
14187;SDS011;7175;51.978;5.330;2022-12-13T10:41:24;98.13;;;91.60;;
14187;SDS011;7175;51.978;5.330;2022-12-13T10:46:51;91.10;;;85.00;;
14187;SDS011;7175;51.978;5.330;2022-12-13T10:49:31;90.93;;;84.83;;
14187;SDS011;7175;51.978;5.330;2022-12-13T10:52:05;93.87;;;87.67;;
14187;SDS011;7175;51.978;5.330;2022-12-13T10:54:58;92.60;;;86.40;;
14187;SDS011;7175;51.978;5.330;2022-12-13T10:57:48;93.30;;;87.10;;
14187;SDS011;7175;51.978;5.330;2022-12-13T11:00:35;93.20;;;87.07;;
14187;SDS011;7175;51.978;5.330;2022-12-13T11:03:09;93.23;;;87.03;;
14187;SDS011;7175;51.978;5.330;2022-12-13T11:05:40;95.43;;;89.13;;
14187;SDS011;7175;51.978;5.330;2022-12-13T11:08:13;95.33;;;89.13;;
14187;SDS011;7175;51.978;5.330;2022-12-13T11:10:43;92.90;;;87.00;;
14187;SDS011;7175;51.978;5.330;2022-12-13T11:13:21;92.40;;;86.50;;
14187;SDS011;7175;51.978;5.330;2022-12-13T11:15:54;95.93;;;89.73;;
14187;SDS011;7175;51.978;5.330;2022-12-13T11:18:24;95.97;;;89.77;;
14187;SDS011;7175;51.978;5.330;2022-12-13T11:20:56;97.57;;;91.10;;
14187;SDS011;7175;51.978;5.330;2022-12-13T11:23:27;98.40;;;91.90;;
14187;SDS011;7175;51.978;5.330;2022-12-13T11:25:59;98.20;;;91.80;;
14187;SDS011;7175;51.978;5.330;2022-12-13T11:28:37;89.43;;;83.63;;
14187;SDS011;7175;51.978;5.330;2022-12-13T11:31:18;89.73;;;83.93;;
14187;SDS011;7175;51.978;5.330;2022-12-13T11:33:57;99.33;;;92.93;;
14187;SDS011;7175;51.978;5.330;2022-12-13T11:36:33;96.73;;;90.43;;
14187;SDS011;7175;51.978;5.330;2022-12-13T11:39:12;91.13;;;85.23;;
14187;SDS011;7175;51.978;5.330;2022-12-13T11:41:47;90.57;;;84.77;;
14187;SDS011;7175;51.978;5.330;2022-12-13T11:44:22;87.13;;;81.63;;
14187;SDS011;7175;51.978;5.330;2022-12-13T11:46:59;89.83;;;83.83;;
14187;SDS011;7175;51.978;5.330;2022-12-13T11:49:32;87.00;;;81.50;;
14187;SDS011;7175;51.978;5.330;2022-12-13T11:52:05;82.47;;;77.27;;
14187;SDS011;7175;51.978;5.330;2022-12-13T11:54:45;82.63;;;77.47;;
14187;SDS011;7175;51.978;5.330;2022-12-13T11:57:22;81.03;;;75.93;;
14187;SDS011;7175;51.978;5.330;2022-12-13T12:00:02;76.10;;;71.20;;
14187;SDS011;7175;51.978;5.330;2022-12-13T12:02:39;71.17;;;66.67;;
14187;SDS011;7175;51.978;5.330;2022-12-13T12:05:16;67.17;;;62.83;;
14187;SDS011;7175;51.978;5.330;2022-12-13T12:07:54;62.67;;;58.60;;
14187;SDS011;7175;51.978;5.330;2022-12-13T12:10:48;62.47;;;58.47;;
14187;SDS011;7175;51.978;5.330;2022-12-13T12:13:27;57.37;;;53.57;;
14187;SDS011;7175;51.978;5.330;2022-12-13T12:16:02;53.00;;;49.40;;
14187;SDS011;7175;51.978;5.330;2022-12-13T12:18:37;52.83;;;49.33;;
14187;SDS011;7175;51.978;5.330;2022-12-13T12:21:09;49.13;;;45.83;;
14187;SDS011;7175;51.978;5.330;2022-12-13T12:23:50;50.70;;;47.30;;
14187;SDS011;7175;51.978;5.330;2022-12-13T12:26:25;48.50;;;45.10;;
14187;SDS011;7175;51.978;5.330;2022-12-13T12:29:08;49.87;;;46.57;;
14187;SDS011;7175;51.978;5.330;2022-12-13T12:31:51;49.07;;;45.83;;
14187;SDS011;7175;51.978;5.330;2022-12-13T12:34:32;48.70;;;45.40;;
14187;SDS011;7175;51.978;5.330;2022-12-13T12:37:10;44.43;;;41.43;;
14187;SDS011;7175;51.978;5.330;2022-12-13T12:39:51;44.47;;;41.37;;
14187;SDS011;7175;51.978;5.330;2022-12-13T12:42:33;39.10;;;36.40;;
14187;SDS011;7175;51.978;5.330;2022-12-13T12:45:46;38.23;;;35.63;;
14187;SDS011;7175;51.978;5.330;2022-12-13T12:48:27;34.87;;;32.40;;
14187;SDS011;7175;51.978;5.330;2022-12-13T12:51:30;34.20;;;31.70;;
14187;SDS011;7175;51.978;5.330;2022-12-13T12:54:18;34.20;;;31.80;;
14187;SDS011;7175;51.978;5.330;2022-12-13T12:57:02;31.90;;;29.60;;
14187;SDS011;7175;51.978;5.330;2022-12-13T12:59:43;34.67;;;32.17;;
14187;SDS011;7175;51.978;5.330;2022-12-13T13:02:27;33.00;;;30.60;;
14187;SDS011;7175;51.978;5.330;2022-12-13T13:05:06;30.90;;;28.60;;
14187;SDS011;7175;51.978;5.330;2022-12-13T13:07:43;33.60;;;31.20;;
14187;SDS011;7175;51.978;5.330;2022-12-13T13:10:19;30.77;;;28.47;;
14187;SDS011;7175;51.978;5.330;2022-12-13T13:12:52;28.93;;;26.73;;
14187;SDS011;7175;51.978;5.330;2022-12-13T13:15:55;28.73;;;26.53;;
14187;SDS011;7175;51.978;5.330;2022-12-13T13:18:43;30.83;;;28.53;;
14187;SDS011;7175;51.978;5.330;2022-12-13T13:21:26;31.23;;;28.83;;
14187;SDS011;7175;51.978;5.330;2022-12-13T13:24:13;31.70;;;29.30;;
14187;SDS011;7175;51.978;5.330;2022-12-13T13:26:53;34.23;;;31.73;;
14187;SDS011;7175;51.978;5.330;2022-12-13T13:29:28;29.63;;;27.33;;
14187;SDS011;7175;51.978;5.330;2022-12-13T13:31:59;31.80;;;29.40;;
14187;SDS011;7175;51.978;5.330;2022-12-13T13:34:31;33.53;;;31.00;;
14187;SDS011;7175;51.978;5.330;2022-12-13T13:37:01;33.03;;;30.53;;
14187;SDS011;7175;51.978;5.330;2022-12-13T13:42:28;31.43;;;28.60;;
14187;SDS011;7175;51.978;5.330;2022-12-13T13:45:14;31.10;;;28.70;;
14187;SDS011;7175;51.978;5.330;2022-12-13T13:47:53;31.67;;;29.27;;
14187;SDS011;7175;51.978;5.330;2022-12-13T13:54:10;34.20;;;31.60;;
14187;SDS011;7175;51.978;5.330;2022-12-13T13:57:10;31.73;;;29.33;;
14187;SDS011;7175;51.978;5.330;2022-12-13T14:00:15;34.60;;;31.97;;
14187;SDS011;7175;51.978;5.330;2022-12-13T14:02:57;30.43;;;28.13;;
14187;SDS011;7175;51.978;5.330;2022-12-13T14:09:02;29.07;;;26.83;;
14187;SDS011;7175;51.978;5.330;2022-12-13T14:11:50;28.77;;;26.57;;
14187;SDS011;7175;51.978;5.330;2022-12-13T14:14:51;29.23;;;26.90;;
14187;SDS011;7175;51.978;5.330;2022-12-13T14:20:58;29.83;;;27.53;;
14187;SDS011;7175;51.978;5.330;2022-12-13T14:23:39;29.00;;;26.80;;
14187;SDS011;7175;51.978;5.330;2022-12-13T14:29:17;30.77;;;28.47;;
14187;SDS011;7175;51.978;5.330;2022-12-13T14:31:50;28.60;;;26.40;;
14187;SDS011;7175;51.978;5.330;2022-12-13T14:34:20;28.93;;;26.70;;
14187;SDS011;7175;51.978;5.330;2022-12-13T14:36:55;28.73;;;26.53;;
14187;SDS011;7175;51.978;5.330;2022-12-13T14:39:25;30.20;;;27.90;;
14187;SDS011;7175;51.978;5.330;2022-12-13T14:41:55;29.20;;;27.00;;
14187;SDS011;7175;51.978;5.330;2022-12-13T14:44:25;30.57;;;28.17;;
14187;SDS011;7175;51.978;5.330;2022-12-13T14:46:54;30.77;;;28.37;;
14187;SDS011;7175;51.978;5.330;2022-12-13T14:49:26;28.23;;;26.03;;
14187;SDS011;7175;51.978;5.330;2022-12-13T14:51:59;30.00;;;27.80;;
14187;SDS011;7175;51.978;5.330;2022-12-13T14:54:34;30.73;;;28.43;;
14187;SDS011;7175;51.978;5.330;2022-12-13T14:57:12;29.77;;;27.47;;
14187;SDS011;7175;51.978;5.330;2022-12-13T14:59:43;30.63;;;28.33;;
14187;SDS011;7175;51.978;5.330;2022-12-13T15:02:16;30.63;;;28.33;;
14187;SDS011;7175;51.978;5.330;2022-12-13T15:04:57;31.53;;;29.20;;
14187;SDS011;7175;51.978;5.330;2022-12-13T15:07:29;31.00;;;28.60;;
14187;SDS011;7175;51.978;5.330;2022-12-13T15:10:00;31.50;;;29.10;;
14187;SDS011;7175;51.978;5.330;2022-12-13T15:12:30;30.83;;;28.50;;
14187;SDS011;7175;51.978;5.330;2022-12-13T15:14:59;30.53;;;28.33;;
14187;SDS011;7175;51.978;5.330;2022-12-13T15:17:30;32.03;;;29.53;;
14187;SDS011;7175;51.978;5.330;2022-12-13T15:20:00;31.47;;;29.17;;
14187;SDS011;7175;51.978;5.330;2022-12-13T15:22:48;34.07;;;31.63;;
14187;SDS011;7175;51.978;5.330;2022-12-13T15:25:23;31.87;;;29.57;;
14187;SDS011;7175;51.978;5.330;2022-12-13T15:27:52;32.00;;;29.70;;
14187;SDS011;7175;51.978;5.330;2022-12-13T15:30:21;31.97;;;29.67;;
14187;SDS011;7175;51.978;5.330;2022-12-13T15:33:03;30.47;;;28.27;;
14187;SDS011;7175;51.978;5.330;2022-12-13T15:35:33;31.47;;;29.17;;
14187;SDS011;7175;51.978;5.330;2022-12-13T15:38:05;31.70;;;29.40;;